Homestake Pass

Elevation
6384ft
Aggregated by Synoptic Data
Date/Time Wind Direction Wind Speed knots Wind Gust knots RH % Accumulated Precip Air Temp Fahrenheit
2024-07-23 10:45 ESE 4 9 29 77
2024-07-23 10:00 0 7 25 77
2024-07-23 09:00 W 3 5 30 74
2024-07-23 08:00 0 1 52 65
2024-07-23 07:00 0 2 59 56
2024-07-23 06:00 0 3 57 54
2024-07-23 05:00 0 1 55 55
2024-07-23 04:00 WSW 1 2 53 57
2024-07-23 03:00 0 1 51 60
2024-07-23 02:00 0 1 50 61
2024-07-23 01:00 WNW 3 6 42 66
2024-07-23 00:00 W 5 9 49 64
2024-07-22 23:00 WSW 3 10 53 63
2024-07-22 22:00 W 4 5 49 64
2024-07-22 21:00 SW 2 3 47 66
2024-07-22 20:00 ENE 1 3 43 69
2024-07-22 19:00 0 6 40 70
2024-07-22 18:00 SW 8 13 45 68
2024-07-22 17:00 W 9 17 38 70
2024-07-22 16:00 SW 12 21 27 78
2024-07-22 15:00 ESE 4 9 22 82
2024-07-22 14:00 ENE 6 12 24 81
2024-07-22 13:00 ESE 6 9 26 80
2024-07-22 12:00 ESE 5 9 29 76
2024-07-22 11:00 E 6 11 33 73
2024-07-22 10:00 E 6 10 33 71
2024-07-22 09:00 ESE 4 9 38 68
2024-07-22 08:00 E 3 3 51 62
2024-07-22 07:00 E 2 3 58 56
2024-07-22 06:00 E 3 4 56 55
2024-07-22 05:00 ESE 3 4 55 56
2024-07-22 04:00 E 3 4 52 57
2024-07-22 03:00 E 2 5 51 57
2024-07-22 02:00 E 3 3 49 59
2024-07-22 01:00 SE 3 3 47 59
2024-07-22 00:00 E 2 3 46 59
2024-07-21 23:00 ESE 3 5 44 63
2024-07-21 22:00 E 3 5 40 66
2024-07-21 21:00 E 3 6 28 72
2024-07-21 20:00 SE 6 10 23 76
2024-07-21 19:00 E 8 13 21 77
2024-07-21 18:00 ESE 7 17 19 78
2024-07-21 17:00 E 4 12 20 79
2024-07-21 16:00 ESE 7 14 21 79
2024-07-21 15:00 ESE 7 11 21 78
2024-07-21 14:00 SE 9 13 19 78
2024-07-21 13:00 ESE 7 12 22 76
2024-07-21 12:00 ESE 6 12 28 73
2024-07-21 11:00 E 4 13 31 72
2024-07-21 10:00 E 6 9 35 70